Time;durP1;ratioP1;P1;durP2;ratioP2;P2;SDS_P1;SDS_P2;PMS_P1;PMS_P2;Temp;Humidity;BMP_temperature;BMP_pressure;BME280_temperature;BME280_humidity;BME280_pressure;Samples;Min_cycle;Max_cycle;Signal;HPM_P1;HPM_P2
2023/06/04 00:01:57;;;;;;;1.33;1.00;;;15.60;79.60;;;;;;4144428;28;20083;-69
2023/06/04 00:03:58;;;;;;;1.33;1.05;;;15.60;80.50;;;;;;4138399;28;20049;-69
2023/06/04 00:05:58;;;;;;;1.65;1.02;;;15.60;80.60;;;;;;4139578;28;20065;-69
2023/06/04 00:07:59;;;;;;;1.85;1.08;;;15.60;80.50;;;;;;4144891;28;20487;-70
2023/06/04 00:10:00;;;;;;;2.45;1.48;;;15.70;80.70;;;;;;4142937;28;20060;-69
2023/06/04 00:12:02;;;;;;;2.20;1.13;;;15.70;81.40;;;;;;4143145;28;20042;-69
2023/06/04 00:14:03;;;;;;;2.72;1.20;;;15.80;81.60;;;;;;4146922;28;20442;-69
2023/06/04 00:16:04;;;;;;;2.67;0.98;;;15.80;82.90;;;;;;4144283;28;20088;-69
2023/06/04 00:18:05;;;;;;;1.83;1.20;;;15.80;83.20;;;;;;4145742;28;20038;-69
2023/06/04 00:20:06;;;;;;;2.45;1.70;;;15.80;81.40;;;;;;4126726;28;20030;-69
2023/06/04 00:22:07;;;;;;;1.20;0.95;;;15.80;83.20;;;;;;4143891;28;20113;-69
2023/06/04 00:24:08;;;;;;;1.80;1.17;;;15.90;82.00;;;;;;4145564;28;20120;-69
2023/06/04 00:26:09;;;;;;;1.38;1.05;;;15.90;81.90;;;;;;4145608;28;20065;-69
2023/06/04 00:28:09;;;;;;;1.55;0.98;;;15.90;81.60;;;;;;4139626;28;20155;-69
2023/06/04 00:30:11;;;;;;;1.40;1.10;;;15.90;82.20;;;;;;4144817;28;20149;-68
2023/06/04 00:32:11;;;;;;;2.00;1.10;;;15.90;82.10;;;;;;4129653;28;20114;-69
2023/06/04 00:34:12;;;;;;;1.25;0.93;;;15.90;83.90;;;;;;4144035;28;20133;-67
2023/06/04 00:36:13;;;;;;;0.90;0.85;;;15.90;84.30;;;;;;4127540;28;20034;-68
2023/06/04 00:38:14;;;;;;;1.15;0.95;;;15.90;83.70;;;;;;4157843;28;20041;-69
2023/06/04 00:40:14;;;;;;;1.17;0.98;;;15.90;85.80;;;;;;4143030;28;20539;-69
2023/06/04 00:42:16;;;;;;;2.38;1.25;;;15.90;85.70;;;;;;4144389;28;20097;-68
2023/06/04 00:44:17;;;;;;;1.30;1.10;;;15.90;84.50;;;;;;4120542;28;20034;-69
2023/06/04 00:46:21;;;;;;;1.48;1.10;;;15.80;84.80;;;;;;4144269;28;20076;-69
2023/06/04 00:48:21;;;;;;;1.73;1.10;;;15.80;85.00;;;;;;4142989;28;20080;-69
2023/06/04 00:50:22;;;;;;;2.15;0.90;;;15.80;83.80;;;;;;4144131;28;20037;-69
2023/06/04 00:52:24;;;;;;;1.83;1.08;;;15.80;83.80;;;;;;4145383;28;20046;-69
2023/06/04 00:54:25;;;;;;;2.38;1.27;;;15.80;83.80;;;;;;4128126;28;20030;-69
2023/06/04 00:56:26;;;;;;;4.07;1.10;;;15.80;84.00;;;;;;4136039;28;20048;-69
2023/06/04 00:58:26;;;;;;;1.02;0.90;;;15.80;86.90;;;;;;4145524;28;20057;-69
2023/06/04 01:02:39;;;;;;;1.95;1.10;;;15.70;86.10;;;;;;4171962;28;20043;-59
2023/06/04 01:05:01;;;;;;;2.03;1.30;;;15.70;86.40;;;;;;4170212;28;20059;-59
2023/06/04 01:07:04;;;;;;;1.67;1.02;;;15.70;87.70;;;;;;4169257;28;20036;-59
2023/06/04 01:09:05;;;;;;;2.38;1.30;;;15.70;86.90;;;;;;4174292;28;20927;-59
2023/06/04 01:11:06;;;;;;;1.70;0.85;;;15.70;87.10;;;;;;4176147;28;20037;-60
2023/06/04 01:13:09;;;;;;;;;;;15.70;86.70;;;;;;4168180;28;20082;-59
2023/06/04 01:15:10;;;;;;;1.77;1.10;;;15.70;88.00;;;;;;4166633;28;19975;-60
2023/06/04 01:17:23;;;;;;;1.33;1.10;;;15.70;87.10;;;;;;4172361;28;20037;-59
2023/06/04 01:19:41;;;;;;;13.00;1.13;;;15.70;87.70;;;;;;4173064;28;20033;-59
2023/06/04 01:21:44;;;;;;;1.17;0.85;;;15.60;87.50;;;;;;4168105;28;20092;-59
2023/06/04 01:23:58;;;;;;;1.60;0.80;;;15.60;88.60;;;;;;4166518;28;20038;-59
2023/06/04 01:26:02;;;;;;;1.05;0.90;;;15.60;87.70;;;;;;4173031;28;20045;-59
2023/06/04 01:28:04;;;;;;;2.78;1.10;;;15.60;87.20;;;;;;4171761;28;20048;-59
2023/06/04 01:30:06;;;;;;;1.20;0.88;;;15.60;88.30;;;;;;4170169;28;20029;-59
2023/06/04 01:32:07;;;;;;;1.77;0.90;;;15.60;87.70;;;;;;4154028;28;20073;-59
2023/06/04 01:34:08;;;;;;;1.60;1.13;;;15.60;88.40;;;;;;4150620;28;20133;-59
2023/06/04 01:36:10;;;;;;;1.30;1.17;;;15.50;88.10;;;;;;4154920;28;20061;-59
2023/06/04 01:38:11;;;;;;;1.63;1.20;;;15.60;88.70;;;;;;4170379;28;20068;-60
2023/06/04 01:40:12;;;;;;;1.33;1.00;;;15.50;88.80;;;;;;4169998;28;20083;-59
2023/06/04 01:42:13;;;;;;;1.27;0.80;;;15.50;89.00;;;;;;4171206;28;20028;-60
2023/06/04 01:44:13;;;;;;;1.70;1.20;;;15.50;88.70;;;;;;4170590;28;20041;-60
2023/06/04 01:46:14;;;;;;;2.05;1.30;;;15.50;88.80;;;;;;4165562;28;20120;-60
2023/06/04 01:48:15;;;;;;;1.70;1.10;;;15.50;89.30;;;;;;4168262;28;20037;-59
2023/06/04 01:50:16;;;;;;;2.30;1.30;;;15.50;90.30;;;;;;4167089;28;20456;-59
2023/06/04 01:52:17;;;;;;;2.53;1.08;;;15.50;90.40;;;;;;4175020;28;20531;-59
2023/06/04 01:54:18;;;;;;;1.20;1.10;;;15.40;90.00;;;;;;4176520;28;20037;-59
2023/06/04 01:56:20;;;;;;;4.93;1.17;;;15.40;90.40;;;;;;4164283;28;20048;-59
2023/06/04 01:58:22;;;;;;;2.42;1.25;;;15.40;91.20;;;;;;4165072;28;20127;-59
2023/06/04 02:00:23;;;;;;;4.63;1.70;;;15.40;90.80;;;;;;4169935;28;20051;-59
2023/06/04 02:02:25;;;;;;;2.85;1.25;;;15.30;90.60;;;;;;4170118;28;20287;-59
2023/06/04 02:04:26;;;;;;;2.75;1.30;;;15.30;91.00;;;;;;4167327;28;20468;-59
2023/06/04 02:06:29;;;;;;;2.15;1.17;;;15.30;92.00;;;;;;4168642;28;20072;-59
2023/06/04 02:08:30;;;;;;;2.95;1.33;;;15.30;92.00;;;;;;4165719;28;20032;-59
2023/06/04 02:10:30;;;;;;;2.58;1.27;;;15.20;91.70;;;;;;4162302;28;20117;-59
2023/06/04 02:12:31;;;;;;;2.90;1.17;;;15.20;91.70;;;;;;4168465;28;20044;-59
2023/06/04 02:14:32;;;;;;;2.40;1.30;;;15.20;93.50;;;;;;4166223;28;20041;-59
2023/06/04 02:16:32;;;;;;;2.67;1.30;;;15.10;92.30;;;;;;4164663;28;20517;-59
2023/06/04 02:18:33;;;;;;;4.43;1.20;;;15.10;92.60;;;;;;4163514;28;20044;-59
2023/06/04 02:20:34;;;;;;;2.03;1.50;;;15.10;92.30;;;;;;4169382;28;20029;-59
2023/06/04 02:22:34;;;;;;;2.17;1.35;;;15.10;92.40;;;;;;4171787;28;20049;-60
2023/06/04 02:24:35;;;;;;;3.33;1.10;;;15.00;92.00;;;;;;4168840;28;20051;-59
2023/06/04 02:26:36;;;;;;;2.50;1.55;;;15.00;93.00;;;;;;4169555;28;20037;-59
2023/06/04 02:28:36;;;;;;;2.67;1.30;;;15.00;92.40;;;;;;4163711;28;20034;-59
2023/06/04 02:30:37;;;;;;;1.83;1.20;;;15.00;92.60;;;;;;4167817;28;20040;-61
2023/06/04 02:32:39;;;;;;;1.27;1.13;;;15.00;93.00;;;;;;4169135;28;20033;-59
2023/06/04 02:34:39;;;;;;;2.20;1.60;;;14.90;92.70;;;;;;4167120;28;20121;-60
2023/06/04 02:36:40;;;;;;;1.77;1.33;;;14.90;93.40;;;;;;4164830;28;20025;-59
2023/06/04 02:38:40;;;;;;;2.55;1.40;;;14.90;93.50;;;;;;4166392;28;20044;-59
2023/06/04 02:40:42;;;;;;;2.72;1.30;;;14.90;93.80;;;;;;4170788;28;20040;-59
2023/06/04 02:42:43;;;;;;;5.20;1.40;;;14.80;92.90;;;;;;4171059;28;20033;-59
2023/06/04 02:44:43;;;;;;;1.65;1.17;;;14.80;92.80;;;;;;4171071;28;20039;-59
2023/06/04 02:46:44;;;;;;;2.03;1.05;;;14.80;93.90;;;;;;4169574;28;20065;-59
2023/06/04 02:48:45;;;;;;;2.15;1.20;;;14.80;93.30;;;;;;4167819;28;20075;-59
2023/06/04 02:50:46;;;;;;;3.60;1.35;;;14.80;94.30;;;;;;4168169;28;20033;-60
2023/06/04 02:52:46;;;;;;;4.25;1.83;;;14.70;93.90;;;;;;4165822;28;20033;-59
2023/06/04 02:54:47;;;;;;;1.65;1.30;;;14.70;94.20;;;;;;4170941;28;20061;-59
2023/06/04 02:56:49;;;;;;;2.33;1.30;;;14.80;94.20;;;;;;4166470;28;20136;-60
2023/06/04 02:58:51;;;;;;;3.72;1.65;;;14.70;94.20;;;;;;4165163;28;20082;-59
2023/06/04 03:00:55;;;;;;;4.05;1.20;;;14.70;93.90;;;;;;4164792;28;20033;-59
2023/06/04 03:03:01;;;;;;;2.47;1.55;;;14.70;94.30;;;;;;4166233;28;20498;-59
2023/06/04 03:05:02;;;;;;;2.13;1.20;;;14.70;94.20;;;;;;4169997;28;20049;-59
2023/06/04 03:07:04;;;;;;;3.60;1.20;;;14.70;94.10;;;;;;4181337;28;20041;-59
2023/06/04 03:09:04;;;;;;;1.90;1.37;;;14.60;93.90;;;;;;4169689;28;20037;-59
2023/06/04 03:11:05;;;;;;;3.05;1.52;;;14.60;94.30;;;;;;4161644;28;20034;-59
2023/06/04 03:13:05;;;;;;;2.22;1.15;;;14.60;95.10;;;;;;4170596;28;20033;-59
2023/06/04 03:15:07;;;;;;;12.27;1.33;;;14.60;94.60;;;;;;4167864;28;20048;-60
2023/06/04 03:17:10;;;;;;;3.45;1.85;;;14.60;95.20;;;;;;4164897;28;20060;-59
2023/06/04 03:19:11;;;;;;;2.83;1.60;;;14.60;95.70;;;;;;4168774;28;20032;-59
2023/06/04 03:21:13;;;;;;;4.07;1.38;;;14.50;96.00;;;;;;4169395;28;20472;-59
2023/06/04 03:23:13;;;;;;;3.70;1.38;;;14.50;95.20;;;;;;4171185;28;20037;-59
2023/06/04 03:25:14;;;;;;;2.03;1.30;;;14.50;95.10;;;;;;4169333;28;20390;-59
2023/06/04 03:27:14;;;;;;;2.75;1.63;;;14.50;96.40;;;;;;4166099;28;20029;-59
2023/06/04 03:29:15;;;;;;;1.90;1.30;;;14.50;95.80;;;;;;4167075;28;20498;-59
2023/06/04 03:31:16;;;;;;;3.97;1.33;;;14.40;95.20;;;;;;4166545;28;20087;-63
2023/06/04 03:33:16;;;;;;;3.13;1.45;;;14.40;95.30;;;;;;4168779;28;20034;-59
2023/06/04 03:35:17;;;;;;;1.95;1.02;;;14.30;95.30;;;;;;4165435;28;20057;-59
2023/06/04 03:37:17;;;;;;;2.78;1.33;;;14.20;95.40;;;;;;4168297;28;20141;-59
2023/06/04 03:39:18;;;;;;;3.70;1.45;;;14.10;95.50;;;;;;4170380;28;20038;-59
2023/06/04 03:41:18;;;;;;;2.05;1.20;;;14.10;95.90;;;;;;4166813;28;20111;-59
2023/06/04 03:43:20;;;;;;;2.78;1.58;;;14.00;96.20;;;;;;4165102;28;20036;-59
2023/06/04 03:45:20;;;;;;;3.15;1.60;;;14.10;97.20;;;;;;4171784;28;20480;-59
2023/06/04 03:47:21;;;;;;;2.55;1.42;;;14.10;97.00;;;;;;4166975;28;20033;-59
2023/06/04 03:49:22;;;;;;;1.73;1.30;;;14.10;96.80;;;;;;4167717;28;20033;-59
2023/06/04 03:51:22;;;;;;;2.00;1.10;;;14.10;96.80;;;;;;4165988;28;20119;-59
2023/06/04 03:53:23;;;;;;;6.43;2.10;;;14.10;96.70;;;;;;4168336;28;20039;-59
2023/06/04 03:55:24;;;;;;;3.67;1.40;;;14.10;97.90;;;;;;4168813;28;20575;-59
2023/06/04 03:57:24;;;;;;;3.75;1.60;;;14.10;97.70;;;;;;4165257;28;20083;-59
2023/06/04 03:59:25;;;;;;;2.83;1.60;;;14.20;98.20;;;;;;4174029;28;20037;-60
2023/06/04 04:01:26;;;;;;;2.35;1.55;;;14.20;98.20;;;;;;4165095;28;20056;-59
2023/06/04 04:03:31;;;;;;;3.08;1.70;;;14.20;98.00;;;;;;4161300;28;20377;-59
2023/06/04 04:05:31;;;;;;;2.33;1.17;;;14.20;98.60;;;;;;4167333;28;20754;-59
2023/06/04 04:07:32;;;;;;;2.03;1.30;;;14.20;97.80;;;;;;4169387;28;20040;-59
2023/06/04 04:09:34;;;;;;;1.42;1.10;;;14.10;97.70;;;;;;4168153;28;20037;-59
2023/06/04 04:11:35;;;;;;;3.10;1.23;;;14.10;97.50;;;;;;4164594;28;20038;-59
2023/06/04 04:13:35;;;;;;;3.38;1.50;;;14.10;97.70;;;;;;4172890;28;20491;-59
2023/06/04 04:15:36;;;;;;;2.60;1.55;;;14.10;97.80;;;;;;4167522;28;20041;-59
2023/06/04 04:17:36;;;;;;;2.15;1.40;;;14.10;99.00;;;;;;4174741;28;20132;-59
2023/06/04 04:19:37;;;;;;;1.40;1.27;;;14.10;97.90;;;;;;4176001;28;20029;-59
2023/06/04 04:21:38;;;;;;;2.38;1.67;;;14.10;98.30;;;;;;4168117;28;20107;-59
2023/06/04 04:23:42;;;;;;;2.90;1.48;;;14.10;99.30;;;;;;4169362;28;20392;-63
2023/06/04 04:25:47;;;;;;;1.60;1.35;;;14.10;99.00;;;;;;4170281;28;20034;-59
2023/06/04 04:27:48;;;;;;;5.57;1.65;;;14.10;98.60;;;;;;4172057;28;20439;-60
2023/06/04 04:29:49;;;;;;;1.92;1.48;;;14.10;99.10;;;;;;4173616;28;20033;-59
2023/06/04 04:31:53;;;;;;;2.50;1.40;;;14.20;99.20;;;;;;4166328;28;20384;-60
2023/06/04 04:33:55;;;;;;;1.75;1.10;;;14.20;99.40;;;;;;4167566;28;20107;-59
2023/06/04 04:35:59;;;;;;;2.53;1.52;;;14.10;99.20;;;;;;4171042;28;20030;-59
2023/06/04 04:38:03;;;;;;;2.65;1.70;;;14.20;99.40;;;;;;4174806;28;20425;-59
2023/06/04 04:40:04;;;;;;;1.27;0.95;;;14.20;99.60;;;;;;4172422;28;20079;-61
2023/06/04 04:42:05;;;;;;;2.53;1.70;;;14.20;99.30;;;;;;4172117;28;20064;-59
2023/06/04 04:44:06;;;;;;;1.70;1.50;;;14.20;99.90;;;;;;4171342;28;20040;-59
2023/06/04 04:46:07;;;;;;;1.27;1.17;;;14.30;99.90;;;;;;4168278;28;20391;-60
2023/06/04 04:48:07;;;;;;;2.78;1.65;;;14.30;99.90;;;;;;4168400;28;20048;-59
2023/06/04 04:50:08;;;;;;;1.80;1.30;;;14.30;99.90;;;;;;4165208;28;20038;-62
2023/06/04 04:52:09;;;;;;;1.95;1.50;;;14.30;99.90;;;;;;4168409;28;20029;-59
2023/06/04 04:54:09;;;;;;;2.28;1.65;;;14.30;99.90;;;;;;4166674;28;20121;-60
2023/06/04 04:56:10;;;;;;;3.20;1.35;;;14.40;99.90;;;;;;4165163;28;20034;-60
2023/06/04 04:58:11;;;;;;;2.03;1.40;;;14.40;99.90;;;;;;4168144;28;20032;-59
2023/06/04 05:00:12;;;;;;;6.82;2.05;;;14.40;99.90;;;;;;4166413;28;21086;-60
2023/06/04 05:02:12;;;;;;;3.50;1.40;;;14.40;99.90;;;;;;4170704;28;20127;-60
2023/06/04 05:04:13;;;;;;;3.67;1.98;;;14.40;99.90;;;;;;4168719;28;20032;-60
2023/06/04 05:06:13;;;;;;;4.53;1.58;;;14.40;99.90;;;;;;4171296;28;20040;-59
2023/06/04 05:08:14;;;;;;;3.08;1.45;;;14.50;99.90;;;;;;4173764;28;20034;-60
2023/06/04 05:10:15;;;;;;;2.53;1.77;;;14.50;99.90;;;;;;4171002;28;20033;-60
2023/06/04 05:12:15;;;;;;;2.25;1.42;;;14.50;99.90;;;;;;4168390;28;20033;-59
2023/06/04 05:14:17;;;;;;;3.83;1.58;;;14.60;99.90;;;;;;4168408;28;20120;-59
2023/06/04 05:16:20;;;;;;;3.95;1.50;;;14.60;99.90;;;;;;4166482;28;20038;-59
2023/06/04 05:18:21;;;;;;;2.03;1.58;;;14.60;99.90;;;;;;4174867;28;20040;-60
2023/06/04 05:20:22;;;;;;;2.28;1.40;;;14.50;99.90;;;;;;4162464;28;20469;-59
2023/06/04 05:22:25;;;;;;;2.90;1.90;;;14.60;99.90;;;;;;4168755;28;20119;-60
2023/06/04 05:24:26;;;;;;;1.55;1.20;;;14.60;99.90;;;;;;4167610;28;20036;-60
2023/06/04 05:26:27;;;;;;;3.17;1.70;;;14.50;99.90;;;;;;4173339;28;20063;-59
2023/06/04 05:28:28;;;;;;;3.00;1.83;;;14.50;99.90;;;;;;4169506;28;20033;-59
2023/06/04 05:30:29;;;;;;;3.53;1.60;;;14.60;99.90;;;;;;4163616;28;20814;-63
2023/06/04 05:32:32;;;;;;;3.88;1.83;;;14.60;99.90;;;;;;4172266;28;20123;-62
2023/06/04 05:34:32;;;;;;;3.00;1.80;;;14.50;99.90;;;;;;4149619;28;20037;-63
2023/06/04 05:36:33;;;;;;;4.25;1.80;;;14.40;99.90;;;;;;4161148;28;20121;-63
2023/06/04 05:38:35;;;;;;;5.10;1.80;;;14.50;99.90;;;;;;4167843;28;20064;-63
2023/06/04 05:40:37;;;;;;;5.18;2.20;;;14.60;99.90;;;;;;4165120;28;20531;-63
2023/06/04 05:42:38;;;;;;;5.38;1.98;;;14.50;99.90;;;;;;4167056;28;20212;-63
2023/06/04 05:44:40;;;;;;;2.95;1.70;;;14.60;99.90;;;;;;4167931;28;22768;-63
2023/06/04 05:46:41;;;;;;;2.40;1.60;;;14.60;99.90;;;;;;4166431;28;20480;-63
2023/06/04 05:48:41;;;;;;;2.55;1.80;;;14.70;99.90;;;;;;4164099;28;20116;-63
2023/06/04 05:50:42;;;;;;;5.13;2.10;;;14.90;99.90;;;;;;4165036;28;20033;-63
2023/06/04 05:52:42;;;;;;;4.05;1.80;;;15.20;99.90;;;;;;4171953;28;20063;-63
2023/06/04 05:54:43;;;;;;;3.38;1.80;;;15.50;99.60;;;;;;4171151;28;20041;-63
2023/06/04 05:56:44;;;;;;;2.90;1.80;;;15.80;98.50;;;;;;4164746;28;20033;-63
2023/06/04 05:58:51;;;;;;;3.70;1.80;;;16.20;98.00;;;;;;4170801;28;20079;-63
2023/06/04 06:00:52;;;;;;;3.95;1.77;;;16.50;97.80;;;;;;4166032;28;20036;-65
2023/06/04 06:02:53;;;;;;;6.20;2.00;;;16.90;97.20;;;;;;4171503;28;20036;-63
2023/06/04 06:04:53;;;;;;;2.28;1.50;;;17.40;95.70;;;;;;4167474;28;20116;-63
2023/06/04 06:06:55;;;;;;;2.08;1.50;;;17.80;94.90;;;;;;4168789;28;20061;-64
2023/06/04 06:08:55;;;;;;;2.15;1.50;;;18.20;94.30;;;;;;4169674;28;20524;-64
2023/06/04 06:10:56;;;;;;;1.95;1.38;;;18.50;94.20;;;;;;4166371;28;20082;-63
2023/06/04 06:12:57;;;;;;;3.47;1.40;;;18.80;94.10;;;;;;4169937;28;20044;-63
2023/06/04 06:14:57;;;;;;;6.03;1.73;;;19.20;92.40;;;;;;4170241;28;20029;-64
2023/06/04 06:16:58;;;;;;;2.38;1.73;;;19.50;92.30;;;;;;4172008;28;20095;-63
2023/06/04 06:18:59;;;;;;;5.38;1.85;;;19.50;91.20;;;;;;4173890;28;20040;-64
2023/06/04 06:21:00;;;;;;;3.80;2.20;;;19.70;91.60;;;;;;4166044;28;20063;-64
2023/06/04 06:23:07;;;;;;;2.92;1.60;;;20.10;91.00;;;;;;4169377;28;20061;-64
2023/06/04 06:25:08;;;;;;;2.45;1.60;;;20.40;90.50;;;;;;4169720;28;20044;-65
2023/06/04 06:27:10;;;;;;;3.92;1.73;;;20.60;88.60;;;;;;4169836;28;20038;-64
2023/06/04 06:29:11;;;;;;;3.00;1.30;;;20.90;91.10;;;;;;4170156;28;20056;-67
2023/06/04 06:31:11;;;;;;;2.53;1.30;;;21.20;90.40;;;;;;4167823;28;20049;-64
2023/06/04 06:33:12;;;;;;;3.63;1.80;;;21.40;87.90;;;;;;4167888;28;20372;-64
2023/06/04 06:35:13;;;;;;;2.70;1.80;;;21.60;87.20;;;;;;4171267;28;20037;-64
2023/06/04 06:37:13;;;;;;;3.22;1.67;;;21.60;85.30;;;;;;4168379;28;20407;-65
2023/06/04 06:39:14;;;;;;;3.35;1.70;;;21.70;86.00;;;;;;4166660;28;20129;-64
2023/06/04 06:41:14;;;;;;;3.35;1.85;;;21.80;86.20;;;;;;4165751;28;20033;-64
2023/06/04 06:43:16;;;;;;;3.70;1.80;;;21.70;83.60;;;;;;4165888;28;21906;-64
2023/06/04 06:45:18;;;;;;;5.07;1.90;;;21.30;84.00;;;;;;4164587;28;20044;-64
2023/06/04 06:47:19;;;;;;;2.72;1.70;;;21.20;82.40;;;;;;4171485;28;20025;-64
2023/06/04 06:49:19;;;;;;;2.42;1.60;;;21.10;83.20;;;;;;4170881;28;20037;-64
2023/06/04 06:51:20;;;;;;;5.53;2.03;;;21.30;83.70;;;;;;4170940;28;20476;-64
2023/06/04 06:53:21;;;;;;;3.47;1.70;;;21.40;83.00;;;;;;4168207;28;20479;-64
2023/06/04 06:55:21;;;;;;;2.58;1.60;;;21.20;81.80;;;;;;4162582;28;20496;-64
2023/06/04 06:57:22;;;;;;;3.08;1.75;;;21.10;81.30;;;;;;4167138;28;20033;-64
2023/06/04 06:59:23;;;;;;;3.88;2.10;;;21.20;83.00;;;;;;4171295;28;20521;-64
2023/06/04 07:01:24;;;;;;;3.95;1.85;;;21.30;83.30;;;;;;4171098;28;20124;-64
2023/06/04 07:03:25;;;;;;;4.60;2.20;;;21.10;82.30;;;;;;4167732;28;20061;-66
2023/06/04 07:05:25;;;;;;;4.57;2.20;;;21.30;83.00;;;;;;4168254;28;20041;-65
2023/06/04 07:07:26;;;;;;;2.65;1.50;;;21.10;80.90;;;;;;4167663;28;20075;-64
2023/06/04 07:09:27;;;;;;;2.63;1.40;;;21.10;81.30;;;;;;4174942;28;20032;-64
2023/06/04 07:11:27;;;;;;;5.07;1.60;;;21.30;84.10;;;;;;4169491;28;20029;-64
2023/06/04 07:13:28;;;;;;;2.90;1.13;;;21.40;83.30;;;;;;4172636;28;20434;-64
2023/06/04 07:15:29;;;;;;;1.98;1.23;;;21.50;83.80;;;;;;4168191;28;20033;-64
2023/06/04 07:17:29;;;;;;;3.35;1.70;;;21.70;86.20;;;;;;4166489;28;20100;-64
2023/06/04 07:19:30;;;;;;;3.65;1.58;;;21.80;85.90;;;;;;4162279;28;20061;-64
2023/06/04 07:21:30;;;;;;;2.17;1.38;;;21.90;83.50;;;;;;4169029;28;20029;-64
2023/06/04 07:23:31;;;;;;;1.98;1.40;;;22.00;84.70;;;;;;4168449;28;20047;-64
2023/06/04 07:25:32;;;;;;;2.05;1.50;;;22.00;82.50;;;;;;4169604;28;20050;-64
2023/06/04 07:27:34;;;;;;;4.05;1.60;;;22.20;80.90;;;;;;4171095;28;20052;-64
2023/06/04 07:29:34;;;;;;;5.67;1.60;;;22.30;86.20;;;;;;4167793;28;20120;-64
2023/06/04 07:31:35;;;;;;;2.15;1.35;;;22.30;81.50;;;;;;4168209;28;20263;-64
2023/06/04 07:33:42;;;;;;;2.10;1.27;;;22.40;82.70;;;;;;4170822;28;20029;-64
2023/06/04 07:35:43;;;;;;;2.83;1.50;;;22.60;83.60;;;;;;4170510;28;20457;-64
2023/06/04 07:37:45;;;;;;;4.50;1.65;;;22.40;76.40;;;;;;4165024;28;20045;-64
2023/06/04 07:39:45;;;;;;;1.88;1.13;;;22.50;79.30;;;;;;4173359;28;20060;-64
2023/06/04 07:41:46;;;;;;;1.98;1.45;;;22.60;82.00;;;;;;4166315;28;20071;-63
2023/06/04 07:43:46;;;;;;;2.10;1.20;;;22.70;82.80;;;;;;4168308;28;20029;-64
2023/06/04 07:45:47;;;;;;;4.60;1.42;;;22.80;82.20;;;;;;4164967;28;20187;-64
2023/06/04 07:47:48;;;;;;;4.38;1.50;;;22.90;80.50;;;;;;4168450;28;20037;-64
2023/06/04 07:49:48;;;;;;;2.58;1.38;;;23.00;79.60;;;;;;4170364;28;20026;-64
2023/06/04 07:51:49;;;;;;;2.00;1.23;;;23.00;82.00;;;;;;4169969;28;20041;-64
2023/06/04 07:53:49;;;;;;;1.52;1.05;;;23.10;81.30;;;;;;4168718;28;20078;-64
2023/06/04 07:55:50;;;;;;;2.42;1.50;;;23.10;79.90;;;;;;4167711;28;20037;-64
2023/06/04 07:57:51;;;;;;;1.55;1.20;;;23.10;79.00;;;;;;4171543;28;20021;-64
2023/06/04 07:59:52;;;;;;;2.30;1.33;;;23.30;77.10;;;;;;4169628;28;20036;-64
2023/06/04 08:01:53;;;;;;;4.03;1.70;;;23.10;77.50;;;;;;4159273;28;20532;-64
2023/06/04 08:03:53;;;;;;;5.40;1.30;;;23.20;76.30;;;;;;4171601;28;20040;-64
2023/06/04 08:05:54;;;;;;;3.75;1.30;;;23.10;74.70;;;;;;4168442;28;20437;-64
2023/06/04 08:07:54;;;;;;;2.15;1.13;;;23.10;76.00;;;;;;4169089;28;20037;-63
2023/06/04 08:09:56;;;;;;;5.15;1.85;;;23.00;76.10;;;;;;4175244;28;20033;-64
2023/06/04 08:11:56;;;;;;;2.97;1.50;;;22.90;80.60;;;;;;4177071;28;20036;-63
2023/06/04 08:13:57;;;;;;;3.72;1.65;;;22.80;74.90;;;;;;4170183;28;20529;-64
2023/06/04 08:15:58;;;;;;;2.25;1.20;;;22.90;77.10;;;;;;4166578;28;20411;-67
2023/06/04 08:17:58;;;;;;;3.70;1.65;;;22.90;80.00;;;;;;4173288;28;20045;-65
2023/06/04 08:19:59;;;;;;;2.58;1.05;;;22.80;74.00;;;;;;4167932;28;20128;-64
2023/06/04 08:22:00;;;;;;;1.73;1.15;;;22.80;80.10;;;;;;4170704;28;20388;-64
2023/06/04 08:24:00;;;;;;;1.60;1.20;;;23.00;79.90;;;;;;4170649;28;20045;-64
2023/06/04 08:26:01;;;;;;;3.20;1.95;;;23.00;75.70;;;;;;4174264;28;20522;-63
2023/06/04 08:28:02;;;;;;;3.55;1.40;;;23.10;75.00;;;;;;4172053;28;20049;-63
2023/06/04 08:30:04;;;;;;;2.38;1.40;;;23.10;72.80;;;;;;4170268;28;20102;-64
2023/06/04 08:32:05;;;;;;;3.85;1.48;;;23.10;74.10;;;;;;4166078;28;20041;-64
2023/06/04 08:34:06;;;;;;;3.38;1.45;;;23.00;75.00;;;;;;4170857;28;20029;-64
2023/06/04 08:36:07;;;;;;;2.40;1.50;;;23.10;74.90;;;;;;4174469;28;20116;-63
2023/06/04 08:38:07;;;;;;;3.10;1.40;;;23.20;78.30;;;;;;4169003;28;20056;-64
2023/06/04 08:40:09;;;;;;;6.03;1.30;;;23.30;73.80;;;;;;4173463;28;20080;-64
2023/06/04 08:42:21;;;;;;;3.23;1.27;;;23.10;74.50;;;;;;4170962;28;20041;-64
2023/06/04 08:44:22;;;;;;;5.45;1.45;;;23.20;74.10;;;;;;4172606;28;20388;-64
2023/06/04 08:46:23;;;;;;;2.65;1.42;;;23.40;80.50;;;;;;4170348;28;20045;-64
2023/06/04 08:48:25;;;;;;;3.15;1.30;;;23.50;79.60;;;;;;4168971;28;20323;-64
2023/06/04 08:50:26;;;;;;;2.17;1.30;;;23.60;74.80;;;;;;4170205;28;20041;-64
2023/06/04 08:52:27;;;;;;;4.90;1.40;;;23.40;72.50;;;;;;4171291;28;20068;-64
2023/06/04 08:54:30;;;;;;;1.20;0.93;;;23.40;77.60;;;;;;4172609;28;20041;-64
2023/06/04 08:56:32;;;;;;;2.50;0.90;;;23.60;78.00;;;;;;4171717;28;20064;-64
2023/06/04 08:58:33;;;;;;;2.88;1.45;;;23.70;77.30;;;;;;4168557;28;20036;-64
2023/06/04 09:00:34;;;;;;;2.50;1.30;;;23.80;74.10;;;;;;4170754;28;20161;-63
2023/06/04 09:02:37;;;;;;;2.35;1.23;;;23.60;70.20;;;;;;4165433;28;20051;-64
2023/06/04 09:04:39;;;;;;;1.80;1.00;;;23.50;72.20;;;;;;4172505;28;20112;-63
2023/06/04 09:06:42;;;;;;;2.47;1.33;;;23.60;75.40;;;;;;4168345;28;20046;-64
2023/06/04 09:08:45;;;;;;;3.72;1.25;;;23.50;70.30;;;;;;4171812;28;20391;-64
2023/06/04 09:10:49;;;;;;;2.83;1.45;;;23.60;68.70;;;;;;4166515;28;20052;-64
2023/06/04 09:12:51;;;;;;;4.22;1.48;;;23.50;70.20;;;;;;4170687;28;20033;-64
2023/06/04 09:14:52;;;;;;;1.52;1.00;;;23.40;65.50;;;;;;4172529;28;20046;-64
2023/06/04 09:16:55;;;;;;;2.70;1.50;;;23.60;69.80;;;;;;4173351;28;20120;-64
2023/06/04 09:18:56;;;;;;;2.85;1.10;;;23.60;69.00;;;;;;4170095;28;20797;-63
2023/06/04 09:21:08;;;;;;;2.88;1.20;;;23.50;63.00;;;;;;4167292;28;20064;-64
2023/06/04 09:23:13;;;;;;;;;;;23.40;62.80;;;;;;4170636;28;20037;-64
2023/06/04 09:25:25;;;;;;;1.42;0.80;;;23.60;66.60;;;;;;4173046;28;19916;-65
2023/06/04 09:27:27;;;;;;;2.67;1.30;;;23.80;66.10;;;;;;4167573;28;20038;-64
2023/06/04 09:29:28;;;;;;;1.92;1.10;;;23.90;63.60;;;;;;4166696;28;20033;-64
2023/06/04 09:31:31;;;;;;;4.03;1.23;;;23.90;59.80;;;;;;4169036;28;20035;-63
2023/06/04 09:33:45;;;;;;;2.08;1.20;;;23.90;59.70;;;;;;4175167;28;20038;-64
2023/06/04 09:35:56;;;;;;;1.98;1.15;;;23.90;61.70;;;;;;4170979;28;20045;-64
2023/06/04 09:37:57;;;;;;;2.03;1.20;;;24.10;69.90;;;;;;4173939;28;20048;-64
2023/06/04 09:39:58;;;;;;;3.13;1.30;;;23.90;60.00;;;;;;4175780;28;20069;-64
2023/06/04 09:42:00;;;;;;;4.38;1.42;;;23.80;59.70;;;;;;4171583;28;20090;-63
2023/06/04 09:44:02;;;;;;;1.98;1.35;;;23.70;57.00;;;;;;4168983;28;20033;-66
2023/06/04 09:46:14;;;;;;;4.03;1.38;;;23.70;60.30;;;;;;4171173;28;20103;-64
2023/06/04 09:48:22;;;;;;;1.55;1.00;;;23.70;59.00;;;;;;4171433;28;20044;-64
2023/06/04 09:50:31;;;;;;;2.60;0.95;;;23.80;63.90;;;;;;4167926;28;20065;-63
2023/06/04 09:52:33;;;;;;;4.60;1.83;;;23.90;64.10;;;;;;4163421;28;20037;-64
2023/06/04 09:54:41;;;;;;;5.57;2.10;;;23.90;57.10;;;;;;4172088;28;20048;-64
2023/06/04 09:56:42;;;;;;;4.95;1.85;;;23.70;57.60;;;;;;4167183;28;20484;-64
2023/06/04 09:58:45;;;;;;;3.42;1.67;;;23.70;59.40;;;;;;4173371;28;20472;-64
2023/06/04 10:00:46;;;;;;;3.55;1.98;;;23.70;60.70;;;;;;4163911;28;20535;-64
2023/06/04 10:02:47;;;;;;;5.10;2.05;;;23.60;59.70;;;;;;4172550;28;20228;-65
2023/06/04 10:04:57;;;;;;;6.07;2.33;;;23.50;60.60;;;;;;4172286;28;20041;-64
2023/06/04 10:06:58;;;;;;;6.78;1.83;;;23.50;57.00;;;;;;4169086;28;20116;-64
2023/06/04 10:09:03;;;;;;;2.22;1.60;;;23.50;57.50;;;;;;4163937;28;20136;-63
2023/06/04 10:11:05;;;;;;;2.58;1.70;;;23.50;60.10;;;;;;4166038;28;20037;-65
2023/06/04 10:13:17;;;;;;;2.60;1.60;;;23.40;59.50;;;;;;4171197;28;20029;-64
2023/06/04 10:15:19;;;;;;;2.43;1.43;;;23.50;60.60;;;;;;4158748;28;20034;-64
2023/06/04 10:17:22;;;;;;;3.28;1.85;;;23.70;63.10;;;;;;4168553;28;20119;-64
2023/06/04 10:19:23;;;;;;;2.42;1.70;;;23.70;61.30;;;;;;4161168;28;20037;-64
2023/06/04 10:21:25;;;;;;;4.18;1.70;;;23.70;59.80;;;;;;4168788;28;20057;-64
2023/06/04 10:23:26;;;;;;;3.70;1.60;;;23.80;60.80;;;;;;4170075;28;20079;-63
2023/06/04 10:25:28;;;;;;;7.15;1.98;;;23.70;59.90;;;;;;4166825;28;20080;-63
2023/06/04 10:27:31;;;;;;;4.50;1.70;;;23.60;60.10;;;;;;4172185;28;20042;-64
2023/06/04 10:29:32;;;;;;;2.20;1.48;;;23.80;66.20;;;;;;4163213;28;20472;-64
2023/06/04 10:31:33;;;;;;;3.78;1.52;;;23.80;60.00;;;;;;4166492;28;20068;-64
2023/06/04 10:33:33;;;;;;;2.97;1.80;;;23.90;69.00;;;;;;4169006;28;20033;-64
2023/06/04 10:35:35;;;;;;;4.20;1.73;;;24.10;58.00;;;;;;4166607;28;20029;-64
2023/06/04 10:37:35;;;;;;;2.00;1.48;;;23.90;59.20;;;;;;4170839;28;20048;-64